createdAt,value
2023-04-08T00:01:24.245Z,6.46
2023-04-08T00:03:56.400Z,6.63
2023-04-08T00:06:29.219Z,6.29
2023-04-08T00:08:56.293Z,6.42
2023-04-08T00:11:24.259Z,6.31
2023-04-08T00:13:52.321Z,6.00
2023-04-08T00:16:20.460Z,6.24
2023-04-08T00:18:49.331Z,6.45
2023-04-08T00:21:20.766Z,6.21
2023-04-08T00:23:48.236Z,6.12
2023-04-08T00:26:16.219Z,6.28
2023-04-08T00:28:50.192Z,6.48
2023-04-08T00:34:14.319Z,6.31
2023-04-08T00:36:42.231Z,6.49
2023-04-08T00:39:10.284Z,6.53
2023-04-08T00:41:43.251Z,6.50
2023-04-08T00:44:10.354Z,6.39
2023-04-08T00:46:39.696Z,6.49
2023-04-08T00:49:12.431Z,6.46
2023-04-08T00:51:40.938Z,6.50
2023-04-08T00:54:14.216Z,6.17
2023-04-08T00:56:48.757Z,6.46
2023-04-08T00:59:18.170Z,6.46
2023-04-08T01:05:26.278Z,6.49
2023-04-08T01:07:59.435Z,6.38
2023-04-08T01:10:33.460Z,6.41
2023-04-08T01:13:06.368Z,6.46
2023-04-08T01:15:41.252Z,6.38
2023-04-08T01:21:08.859Z,6.45
2023-04-08T01:24:02.500Z,6.21
2023-04-08T01:26:31.281Z,6.12
2023-04-08T01:29:01.674Z,6.33
2023-04-08T01:31:41.969Z,6.52
2023-04-08T01:34:11.884Z,6.46
2023-04-08T01:39:57.256Z,6.25
2023-04-08T01:42:50.700Z,6.50
2023-04-08T01:45:23.922Z,6.39
2023-04-08T01:47:53.421Z,6.59
2023-04-08T01:50:23.618Z,6.14
2023-04-08T01:52:53.612Z,6.45
2023-04-08T01:55:22.919Z,6.54
2023-04-08T01:57:59.821Z,6.52
2023-04-08T02:00:32.021Z,6.56
2023-04-08T02:03:01.157Z,6.50
2023-04-08T02:05:28.314Z,6.38
2023-04-08T02:07:56.266Z,6.56
2023-04-08T02:10:29.270Z,6.46
2023-04-08T02:12:56.879Z,6.66
2023-04-08T02:15:27.584Z,6.63
2023-04-08T02:18:03.441Z,6.57
2023-04-08T02:20:47.744Z,6.66
2023-04-08T02:23:20.470Z,6.73
2023-04-08T02:25:56.925Z,6.48
2023-04-08T02:28:31.386Z,6.41
2023-04-08T02:31:05.767Z,6.43
2023-04-08T02:33:37.046Z,6.39
2023-04-08T02:39:00.547Z,6.43
2023-04-08T02:41:30.095Z,6.48
2023-04-08T02:43:58.439Z,6.17
2023-04-08T02:47:16.737Z,6.36
2023-04-08T02:49:44.398Z,6.38
2023-04-08T02:52:17.303Z,6.52
2023-04-08T02:54:44.429Z,6.38
2023-04-08T03:00:28.323Z,6.25
2023-04-08T03:02:56.545Z,6.32
2023-04-08T03:05:24.290Z,6.39
2023-04-08T03:07:52.253Z,6.20
2023-04-08T03:10:20.501Z,6.35
2023-04-08T03:12:48.307Z,6.12
2023-04-08T03:15:40.382Z,6.62
2023-04-08T03:18:08.291Z,6.43
2023-04-08T03:20:36.370Z,6.43
2023-04-08T03:23:04.298Z,6.49
2023-04-08T03:25:32.307Z,6.29
2023-04-08T03:28:04.285Z,6.20
2023-04-08T03:30:32.310Z,6.14
2023-04-08T03:33:07.353Z,6.28
2023-04-08T03:35:34.392Z,6.17
2023-04-08T03:38:02.258Z,6.20
2023-04-08T03:40:35.293Z,6.14
2023-04-08T03:43:02.281Z,6.18
2023-04-08T03:45:30.240Z,5.83
2023-04-08T03:50:50.531Z,5.67
2023-04-08T03:53:18.242Z,5.97
2023-04-08T03:55:53.605Z,5.73
2023-04-08T03:58:20.346Z,5.87
2023-04-08T04:00:48.342Z,5.70
2023-04-08T04:03:21.741Z,6.11
2023-04-08T04:05:55.607Z,5.82
2023-04-08T04:08:22.249Z,6.07
2023-04-08T04:10:56.517Z,5.98
2023-04-08T04:13:29.344Z,5.93
2023-04-08T04:16:02.435Z,5.67
2023-04-08T04:18:54.550Z,5.87
2023-04-08T04:21:22.240Z,5.62
2023-04-08T04:24:41.195Z,5.39
2023-04-08T04:27:35.209Z,5.65
2023-04-08T04:32:54.311Z,5.82
2023-04-08T04:35:22.344Z,6.01
2023-04-08T04:37:51.818Z,5.90
2023-04-08T04:40:49.367Z,5.91
2023-04-08T04:43:16.456Z,6.10
2023-04-08T04:45:53.374Z,6.05
2023-04-08T04:48:20.334Z,6.03
2023-04-08T04:50:58.446Z,6.12
2023-04-08T04:53:26.264Z,6.20
2023-04-08T04:55:54.549Z,5.94
2023-04-08T04:58:22.257Z,5.94
2023-04-08T05:03:42.332Z,5.93
2023-04-08T05:06:14.258Z,5.73
2023-04-08T05:08:42.361Z,5.82
2023-04-08T05:11:11.106Z,5.58
2023-04-08T05:13:38.237Z,5.79
2023-04-08T05:19:02.352Z,5.63
2023-04-08T05:21:54.257Z,5.80
2023-04-08T05:24:22.535Z,5.90
2023-04-08T05:26:57.739Z,5.90
2023-04-08T05:29:26.354Z,6.07
2023-04-08T05:31:54.445Z,6.26
2023-04-08T05:34:23.301Z,5.86
2023-04-08T05:36:54.090Z,5.95
2023-04-08T05:39:22.252Z,6.03
2023-04-08T05:41:50.447Z,5.73
2023-04-08T05:44:22.299Z,5.58
2023-04-08T05:46:50.353Z,5.84
2023-04-08T05:49:23.644Z,5.93
2023-04-08T05:51:55.373Z,6.08
2023-04-08T05:54:22.313Z,6.00
2023-04-08T05:59:52.421Z,5.97
2023-04-08T06:02:20.388Z,6.08
2023-04-08T06:04:48.287Z,6.05
2023-04-08T06:07:16.229Z,6.10
2023-04-08T06:09:45.334Z,5.82
2023-04-08T06:12:12.388Z,5.89
2023-04-08T06:15:10.048Z,5.95
2023-04-08T06:17:39.228Z,5.72
2023-04-08T06:20:12.325Z,5.73
2023-04-08T06:22:40.442Z,5.91
2023-04-08T06:28:00.215Z,6.04
2023-04-08T06:30:28.262Z,5.94
2023-04-08T06:33:00.271Z,5.83
2023-04-08T06:35:28.485Z,5.53
2023-04-08T06:38:21.254Z,5.89
2023-04-08T06:40:48.243Z,5.98
2023-04-08T06:43:20.478Z,5.87
2023-04-08T06:45:48.262Z,5.84
2023-04-08T06:51:41.816Z,5.94
2023-04-08T06:54:10.287Z,6.03
2023-04-08T06:56:38.262Z,6.17
2023-04-08T07:01:58.460Z,5.95
2023-04-08T07:04:31.860Z,6.05
2023-04-08T07:07:26.198Z,6.28
2023-04-08T07:09:54.276Z,5.98
2023-04-08T07:12:27.440Z,5.93
2023-04-08T07:14:54.209Z,6.12
2023-04-08T07:17:27.285Z,5.98
2023-04-08T07:19:54.228Z,5.87
2023-04-08T07:22:22.551Z,6.10
2023-04-08T07:28:08.240Z,6.48
2023-04-08T07:31:28.625Z,6.46
2023-04-08T07:34:22.323Z,6.48
2023-04-08T07:36:54.276Z,6.35
2023-04-08T07:39:22.281Z,6.32
2023-04-08T07:41:50.374Z,6.56
2023-04-08T07:44:23.371Z,6.38
2023-04-08T07:46:51.711Z,6.32
2023-04-08T07:52:12.272Z,5.93
2023-04-08T07:54:40.426Z,6.04
2023-04-08T07:57:08.214Z,6.11
2023-04-08T07:59:41.252Z,6.25
2023-04-08T08:02:08.309Z,6.41
2023-04-08T08:04:36.401Z,6.38
2023-04-08T08:07:04.433Z,6.26
2023-04-08T08:09:36.277Z,6.63
2023-04-08T08:12:04.491Z,6.49
2023-04-08T08:14:37.284Z,6.73
2023-04-08T08:17:04.758Z,6.63
2023-04-08T08:19:32.422Z,6.29
2023-04-08T08:22:00.427Z,6.24
2023-04-08T08:24:28.243Z,6.05
2023-04-08T08:26:56.599Z,6.31
2023-04-08T08:35:08.862Z,6.35
2023-04-08T08:37:36.234Z,6.46
2023-04-08T08:40:04.661Z,6.59
2023-04-08T08:42:34.250Z,6.76
2023-04-08T08:45:03.579Z,6.79
2023-04-08T08:48:01.928Z,7.00
2023-04-08T08:50:30.363Z,6.86
2023-04-08T08:52:58.394Z,7.22
2023-04-08T08:55:44.737Z,7.22
2023-04-08T08:58:39.168Z,7.32
2023-04-08T09:01:38.230Z,7.36
2023-04-08T09:04:14.348Z,7.11
2023-04-08T09:06:43.804Z,7.03
2023-04-08T09:09:16.874Z,7.22
2023-04-08T09:11:46.224Z,7.39
2023-04-08T09:14:40.715Z,7.14
2023-04-08T09:17:08.370Z,6.56
2023-04-08T09:19:40.565Z,6.75
2023-04-08T09:22:15.491Z,6.86
2023-04-08T09:24:47.792Z,6.94
2023-04-08T09:27:16.466Z,6.94
2023-04-08T09:29:48.610Z,7.17
2023-04-08T09:32:16.254Z,7.00
2023-04-08T09:34:48.260Z,7.24
2023-04-08T09:40:08.859Z,7.26
2023-04-08T09:42:46.694Z,6.83
2023-04-08T09:45:21.156Z,6.75
2023-04-08T09:47:54.883Z,6.83
2023-04-08T09:50:27.140Z,6.86
2023-04-08T09:53:22.780Z,6.90
2023-04-08T09:55:53.317Z,6.80
2023-04-08T09:58:52.654Z,7.03
2023-04-08T10:01:53.760Z,7.38
2023-04-08T10:04:24.596Z,6.81
2023-04-08T10:07:19.278Z,6.62
2023-04-08T10:09:46.365Z,6.81
2023-04-08T10:12:14.602Z,6.90
2023-04-08T10:14:42.251Z,6.81
2023-04-08T10:17:27.301Z,6.97
2023-04-08T10:19:54.699Z,6.93
2023-04-08T10:22:46.490Z,7.07
2023-04-08T10:25:42.069Z,7.04
2023-04-08T10:28:17.915Z,6.87
2023-04-08T10:30:50.849Z,7.22
2023-04-08T10:33:44.554Z,7.39
2023-04-08T10:39:11.291Z,7.08
2023-04-08T10:41:44.633Z,7.05
2023-04-08T10:44:19.949Z,7.22
2023-04-08T10:47:12.764Z,7.19
2023-04-08T10:49:47.623Z,7.43
2023-04-08T10:52:15.690Z,7.43
2023-04-08T10:54:48.342Z,7.74
2023-04-08T10:57:27.000Z,7.89
2023-04-08T10:59:59.239Z,7.74
2023-04-08T11:02:33.288Z,8.00
2023-04-08T11:05:00.576Z,7.87
2023-04-08T11:07:33.325Z,7.64
2023-04-08T11:10:03.833Z,7.67
2023-04-08T11:12:32.556Z,7.67
2023-04-08T11:15:26.449Z,7.90
2023-04-08T11:17:55.002Z,7.81
2023-04-08T11:20:22.556Z,7.97
2023-04-08T11:22:50.555Z,8.12
2023-04-08T11:25:18.525Z,8.17
2023-04-08T11:27:47.551Z,7.64
2023-04-08T11:30:14.482Z,7.52
2023-04-08T11:32:42.434Z,7.53
2023-04-08T11:35:10.861Z,7.56
2023-04-08T11:37:40.860Z,8.00
2023-04-08T11:40:12.566Z,7.69
2023-04-08T11:42:40.300Z,7.76
2023-04-08T11:45:16.643Z,7.90
2023-04-08T11:47:45.029Z,7.64
2023-04-08T11:50:12.396Z,7.62
2023-04-08T11:53:19.668Z,7.57
2023-04-08T11:55:48.996Z,7.97
2023-04-08T11:58:16.464Z,8.07
2023-04-08T12:00:45.568Z,8.08
2023-04-08T12:03:13.546Z,8.29
2023-04-08T12:05:48.354Z,8.11
2023-04-08T12:08:16.293Z,8.18
2023-04-08T12:10:49.273Z,8.01
2023-04-08T12:13:16.257Z,8.10
2023-04-08T12:15:45.136Z,8.36
2023-04-08T12:18:37.374Z,8.38
2023-04-08T12:26:50.372Z,8.77
2023-04-08T12:29:18.227Z,8.46
2023-04-08T12:31:46.625Z,7.91
2023-04-08T12:34:18.409Z,8.05
2023-04-08T12:36:51.367Z,8.30
2023-04-08T12:39:18.269Z,8.36
2023-04-08T12:44:38.247Z,7.66
2023-04-08T12:47:11.432Z,8.30
2023-04-08T12:49:49.578Z,8.39
2023-04-08T12:55:10.617Z,7.84
2023-04-08T12:57:38.266Z,8.02
2023-04-08T13:00:07.080Z,8.28
2023-04-08T13:02:34.306Z,8.36
2023-04-08T13:05:02.363Z,8.12
2023-04-08T13:07:35.344Z,7.94
2023-04-08T13:10:03.747Z,7.87
2023-04-08T13:12:40.595Z,8.15
2023-04-08T13:15:12.578Z,7.94
2023-04-08T13:17:40.601Z,8.26
2023-04-08T13:20:34.295Z,7.86
2023-04-08T13:23:02.367Z,8.12
2023-04-08T13:28:27.229Z,8.54
2023-04-08T13:31:00.347Z,8.11
2023-04-08T13:33:28.231Z,8.18
2023-04-08T13:36:00.364Z,7.93
2023-04-08T13:38:52.497Z,8.07
2023-04-08T13:41:25.264Z,7.56
2023-04-08T13:43:52.446Z,8.15
2023-04-08T13:46:20.397Z,8.33
2023-04-08T13:48:48.296Z,8.38
2023-04-08T13:51:16.259Z,8.26
2023-04-08T13:53:44.216Z,8.48
2023-04-08T13:56:12.241Z,8.22
2023-04-08T13:58:40.525Z,8.12
2023-04-08T14:01:08.299Z,8.28
2023-04-08T14:03:36.531Z,8.14
2023-04-08T14:06:04.452Z,8.52
2023-04-08T14:08:32.450Z,8.50
2023-04-08T14:11:04.360Z,8.61
2023-04-08T14:13:36.234Z,8.43
2023-04-08T14:16:04.498Z,8.42
2023-04-08T14:18:32.404Z,8.50
2023-04-08T14:23:52.603Z,8.67
2023-04-08T14:26:51.356Z,8.57
2023-04-08T14:29:18.272Z,8.45
2023-04-08T14:31:46.243Z,8.32
2023-04-08T14:34:14.253Z,8.12
2023-04-08T14:36:42.263Z,7.95
2023-04-08T14:39:11.859Z,8.40
2023-04-08T14:41:40.655Z,8.14
2023-04-08T14:44:08.292Z,8.40
2023-04-08T14:46:40.279Z,8.33
2023-04-08T14:49:08.254Z,8.63
2023-04-08T14:51:37.916Z,8.49
2023-04-08T14:54:06.279Z,8.30
2023-04-08T14:56:34.293Z,8.60
2023-04-08T14:59:02.287Z,8.70
2023-04-08T15:01:32.313Z,8.42
2023-04-08T15:04:04.414Z,8.74
2023-04-08T15:06:32.460Z,8.39
2023-04-08T15:09:00.231Z,8.26
2023-04-08T15:11:28.272Z,8.61
2023-04-08T15:13:56.247Z,8.68
2023-04-08T15:16:28.471Z,8.67
2023-04-08T15:19:04.658Z,8.67
2023-04-08T15:21:32.267Z,8.80
2023-04-08T15:24:05.374Z,8.63
2023-04-08T15:26:32.609Z,8.40
2023-04-08T15:29:26.314Z,8.70
2023-04-08T15:31:54.364Z,8.81
2023-04-08T15:34:22.287Z,8.77
2023-04-08T15:36:50.235Z,8.76
2023-04-08T15:39:18.365Z,8.17
2023-04-08T15:41:46.301Z,8.53
2023-04-08T15:44:14.342Z,8.73
2023-04-08T15:46:42.259Z,8.64
2023-04-08T15:49:10.461Z,8.56
2023-04-08T15:51:38.289Z,8.45
2023-04-08T15:54:06.351Z,8.43
2023-04-08T15:56:34.257Z,8.22
2023-04-08T15:59:02.322Z,8.59
2023-04-08T16:01:31.015Z,8.48
2023-04-08T16:04:00.827Z,8.59
2023-04-08T16:06:28.270Z,8.66
2023-04-08T16:11:48.827Z,8.71
2023-04-08T16:14:16.353Z,8.66
2023-04-08T16:17:09.093Z,8.28
2023-04-08T16:19:38.512Z,8.59
2023-04-08T16:22:06.402Z,8.78
2023-04-08T16:24:37.026Z,8.71
2023-04-08T16:27:04.621Z,8.68
2023-04-08T16:29:32.570Z,8.52
2023-04-08T16:32:01.602Z,8.60
2023-04-08T16:34:34.566Z,8.78
2023-04-08T16:37:02.377Z,8.30
2023-04-08T16:39:54.465Z,8.38
2023-04-08T16:42:26.556Z,8.57
2023-04-08T16:44:57.927Z,8.46
2023-04-08T16:47:29.077Z,8.05
2023-04-08T16:49:56.241Z,8.56
2023-04-08T16:52:24.341Z,8.38
2023-04-08T16:54:52.344Z,8.43
2023-04-08T16:57:20.324Z,8.66
2023-04-08T16:59:50.662Z,8.52
2023-04-08T17:02:23.554Z,8.56
2023-04-08T17:04:50.470Z,8.54
2023-04-08T17:12:42.376Z,7.74
2023-04-08T17:18:02.436Z,8.12
2023-04-08T17:20:54.246Z,8.42
2023-04-08T17:23:22.279Z,8.46
2023-04-08T17:26:15.634Z,8.61
2023-04-08T17:28:43.065Z,8.46
2023-04-08T17:31:11.047Z,8.22
2023-04-08T17:33:38.256Z,8.25
2023-04-08T17:36:07.102Z,8.29
2023-04-08T17:38:39.530Z,8.25
2023-04-08T17:41:08.021Z,8.36
2023-04-08T17:43:36.412Z,7.90
2023-04-08T17:49:20.239Z,7.95
2023-04-08T17:51:52.221Z,7.79
2023-04-08T17:54:24.951Z,7.80
2023-04-08T17:56:57.887Z,7.94
2023-04-08T17:59:26.270Z,7.47
2023-04-08T18:01:54.478Z,7.69
2023-04-08T18:04:22.638Z,7.94
2023-04-08T18:06:50.367Z,7.63
2023-04-08T18:09:18.229Z,7.84
2023-04-08T18:11:46.347Z,7.67
2023-04-08T18:14:14.259Z,7.87
2023-04-08T18:16:47.332Z,8.07
2023-04-08T18:19:14.270Z,8.19
2023-04-08T18:21:46.302Z,7.77
2023-04-08T18:24:14.257Z,7.67
2023-04-08T18:26:43.825Z,7.90
2023-04-08T18:29:12.403Z,8.18
2023-04-08T18:31:44.318Z,7.91
2023-04-08T18:34:12.214Z,7.59
2023-04-08T18:36:44.327Z,7.91
2023-04-08T18:39:12.254Z,8.14
2023-04-08T18:41:40.227Z,8.00
2023-04-08T18:47:09.562Z,7.45
2023-04-08T18:49:38.517Z,7.39
2023-04-08T18:52:06.764Z,7.35
2023-04-08T18:54:34.333Z,7.77
2023-04-08T18:57:06.368Z,7.76
2023-04-08T18:59:34.329Z,7.36
2023-04-08T19:02:31.813Z,7.69
2023-04-08T19:05:05.418Z,7.69
2023-04-08T19:07:32.505Z,7.40
2023-04-08T19:10:00.383Z,7.50
2023-04-08T19:12:28.254Z,7.47
2023-04-08T19:15:02.638Z,7.69
2023-04-08T19:17:30.803Z,7.56
2023-04-08T19:19:58.710Z,7.69
2023-04-08T19:22:28.732Z,7.47
2023-04-08T19:24:56.351Z,7.29
2023-04-08T19:27:24.213Z,7.39
2023-04-08T19:29:56.525Z,7.26
2023-04-08T19:32:24.388Z,7.35
2023-04-08T19:34:52.446Z,7.53
2023-04-08T19:37:20.317Z,7.34
2023-04-08T19:39:52.556Z,7.17
2023-04-08T19:42:20.327Z,7.17
2023-04-08T19:44:53.709Z,7.14
2023-04-08T19:47:22.593Z,7.00
2023-04-08T19:49:50.334Z,7.11
2023-04-08T19:52:18.329Z,7.11
2023-04-08T19:55:10.792Z,7.45
2023-04-08T19:57:44.940Z,7.34
2023-04-08T20:00:14.237Z,7.31
2023-04-08T20:02:42.351Z,7.35
2023-04-08T20:05:14.890Z,7.22
2023-04-08T20:07:42.940Z,7.39
2023-04-08T20:10:10.522Z,7.62
2023-04-08T20:12:38.749Z,7.66
2023-04-08T20:15:23.634Z,7.50
2023-04-08T20:17:53.144Z,7.70
2023-04-08T20:20:20.451Z,7.53
2023-04-08T20:22:48.228Z,7.70
2023-04-08T20:25:16.376Z,7.69
2023-04-08T20:27:44.274Z,7.03
2023-04-08T20:30:18.072Z,7.15
2023-04-08T20:32:46.269Z,7.08
2023-04-08T20:35:19.343Z,6.88
2023-04-08T20:37:51.308Z,7.03
2023-04-08T20:40:18.487Z,7.05
2023-04-08T20:43:16.948Z,6.98
2023-04-08T20:46:10.478Z,6.90
2023-04-08T20:48:38.325Z,7.22
2023-04-08T20:51:06.497Z,6.90
2023-04-08T20:53:37.017Z,7.09
2023-04-08T20:56:04.537Z,7.15
2023-04-08T21:01:24.333Z,7.14
2023-04-08T21:03:57.147Z,7.17
2023-04-08T21:06:24.370Z,7.24
2023-04-08T21:08:52.397Z,6.80
2023-04-08T21:11:24.360Z,6.93
2023-04-08T21:16:48.420Z,6.93
2023-04-08T21:19:16.255Z,7.01
2023-04-08T21:21:46.203Z,7.15
2023-04-08T21:24:14.308Z,7.19
2023-04-08T21:26:42.254Z,7.26
2023-04-08T21:29:11.417Z,7.25
2023-04-08T21:31:44.315Z,6.87
2023-04-08T21:34:13.299Z,6.90
2023-04-08T21:36:45.336Z,7.09
2023-04-08T21:39:12.341Z,7.07
2023-04-08T21:41:45.276Z,6.91
2023-04-08T21:44:12.310Z,6.84
2023-04-08T21:46:40.269Z,7.11
2023-04-08T21:49:11.126Z,7.08
2023-04-08T21:51:39.165Z,6.94
2023-04-08T21:57:54.232Z,7.29
2023-04-08T22:00:49.169Z,7.38
2023-04-08T22:03:43.359Z,7.39
2023-04-08T22:06:29.132Z,7.47
2023-04-08T22:09:29.254Z,7.55
2023-04-08T22:12:02.080Z,7.38
2023-04-08T22:14:54.236Z,7.64
2023-04-08T22:17:22.260Z,7.47
2023-04-08T22:19:54.238Z,7.39
2023-04-08T22:22:26.913Z,7.70
2023-04-08T22:27:46.234Z,7.40
2023-04-08T22:30:21.386Z,7.63
2023-04-08T22:32:48.320Z,7.29
2023-04-08T22:35:16.621Z,7.38
2023-04-08T22:37:44.247Z,7.62
2023-04-08T22:40:12.322Z,7.66
2023-04-08T22:42:40.363Z,7.63
2023-04-08T22:45:08.468Z,7.73
2023-04-08T22:47:37.386Z,7.63
2023-04-08T22:50:10.969Z,7.43
2023-04-08T22:52:38.336Z,7.52
2023-04-08T22:55:07.028Z,7.66
2023-04-08T22:58:00.320Z,7.45
2023-04-08T23:00:29.472Z,7.59
2023-04-08T23:02:57.893Z,7.74
2023-04-08T23:05:26.276Z,7.62
2023-04-08T23:07:54.241Z,7.28
2023-04-08T23:10:22.237Z,7.56
2023-04-08T23:12:50.680Z,7.63
2023-04-08T23:15:18.577Z,7.66
2023-04-08T23:17:46.334Z,7.70
2023-04-08T23:20:40.282Z,7.67
2023-04-08T23:23:08.256Z,7.74
2023-04-08T23:25:36.363Z,7.42
2023-04-08T23:28:28.253Z,7.46
2023-04-08T23:30:56.554Z,7.32
2023-04-08T23:33:24.205Z,7.56
2023-04-08T23:35:52.274Z,7.76
2023-04-08T23:38:20.437Z,7.83
2023-04-08T23:40:48.281Z,7.79
2023-04-08T23:43:40.274Z,7.52
2023-04-08T23:46:33.689Z,7.39
2023-04-08T23:49:02.329Z,7.26
2023-04-08T23:51:31.300Z,7.67
2023-04-08T23:53:58.224Z,7.45
2023-04-08T23:56:26.232Z,7.42
2023-04-08T23:58:54.495Z,7.38
